createdAt,value
2022-11-22T00:00:08.129Z,69.17
2022-11-22T00:01:08.153Z,69.07
2022-11-22T00:02:08.338Z,69.01
2022-11-22T00:03:07.924Z,68.05
2022-11-22T00:04:08.192Z,67.61
2022-11-22T00:05:08.219Z,67.52
2022-11-22T00:06:08.235Z,66.69
2022-11-22T00:07:08.364Z,66.78
2022-11-22T00:08:08.002Z,66.53
2022-11-22T00:09:08.284Z,65.67
2022-11-22T00:10:08.046Z,65.42
2022-11-22T00:11:08.075Z,65.23
2022-11-22T00:12:08.069Z,64.65
2022-11-22T00:13:08.386Z,63.93
2022-11-22T00:14:08.360Z,63.67
2022-11-22T00:15:08.384Z,63.19
2022-11-22T00:16:08.402Z,62.81
2022-11-22T00:17:08.416Z,62.46
2022-11-22T00:18:08.188Z,61.98
2022-11-22T00:19:08.450Z,61.31
2022-11-22T00:20:08.206Z,60.77
2022-11-22T00:21:08.491Z,60.1
2022-11-22T00:22:08.497Z,59.72
2022-11-22T00:23:08.517Z,60
2022-11-22T00:24:08.534Z,60.06
2022-11-22T00:25:08.556Z,60.26
2022-11-22T00:26:08.301Z,60.06
2022-11-22T00:27:08.624Z,60.61
2022-11-22T00:28:08.608Z,60.71
2022-11-22T00:29:08.638Z,61.19
2022-11-22T00:30:08.648Z,61.38
2022-11-22T00:31:08.663Z,61.72
2022-11-22T00:32:08.681Z,62.11
2022-11-22T00:33:08.435Z,62.55
2022-11-22T00:34:08.438Z,62.75
2022-11-22T00:35:08.723Z,63.13
2022-11-22T00:36:08.739Z,62.75
2022-11-22T00:37:08.749Z,63.48
2022-11-22T00:38:08.785Z,63.48
2022-11-22T00:39:08.791Z,63.76
2022-11-22T00:40:08.797Z,63.86
2022-11-22T00:41:08.569Z,64.25
2022-11-22T00:42:08.842Z,64.05
2022-11-22T00:43:08.626Z,64.59
2022-11-22T00:44:08.876Z,64.78
2022-11-22T00:45:08.911Z,64.59
2022-11-22T00:46:08.655Z,64.78
2022-11-22T00:47:08.675Z,65.26
2022-11-22T00:48:08.945Z,65.04
2022-11-22T00:49:08.703Z,65.23
2022-11-22T00:50:08.987Z,65.33
2022-11-22T00:51:08.725Z,65.89
2022-11-22T00:52:09.007Z,65.99
2022-11-22T00:53:09.020Z,65.33
2022-11-22T00:54:09.045Z,66.18
2022-11-22T00:55:09.069Z,66.38
2022-11-22T00:56:09.081Z,66.24
2022-11-22T00:57:09.094Z,66.05
2022-11-22T00:58:09.110Z,66.53
2022-11-22T00:59:08.906Z,66.34
2022-11-22T01:00:08.890Z,66.24
2022-11-22T01:01:09.324Z,66.05
2022-11-22T01:02:09.178Z,66.82
2022-11-22T01:03:09.190Z,66.63
2022-11-22T01:04:09.221Z,66.44
2022-11-22T01:05:09.224Z,67.1
2022-11-22T01:06:09.244Z,67.2
2022-11-22T01:07:09.388Z,67.07
2022-11-22T01:08:09.278Z,67.16
2022-11-22T01:09:09.030Z,66.97
2022-11-22T01:10:09.067Z,66.78
2022-11-22T01:11:09.060Z,66.78
2022-11-22T01:12:09.343Z,66.69
2022-11-22T01:13:09.365Z,67.16
2022-11-22T01:14:09.375Z,67.26
2022-11-22T01:15:09.155Z,67.26
2022-11-22T01:16:09.411Z,67.26
2022-11-22T01:17:09.442Z,67.55
2022-11-22T01:18:09.440Z,67.64
2022-11-22T01:19:09.457Z,67.45
2022-11-22T01:20:09.217Z,67.64
2022-11-22T01:21:09.239Z,67.83
2022-11-22T01:22:09.527Z,67.55
2022-11-22T01:23:09.514Z,67.55
2022-11-22T01:24:09.277Z,67.64
2022-11-22T01:25:09.559Z,67.55
2022-11-22T01:26:09.583Z,67.7
2022-11-22T01:27:09.584Z,68.21
2022-11-22T01:28:09.608Z,68.27
2022-11-22T01:29:09.616Z,68.27
2022-11-22T01:30:09.644Z,67.8
2022-11-22T01:31:09.732Z,68.46
2022-11-22T01:32:09.670Z,69.32
2022-11-22T01:33:09.715Z,69.32
2022-11-22T01:34:09.699Z,69.74
2022-11-22T01:35:10.700Z,70.21
2022-11-22T01:36:09.475Z,70.02
2022-11-22T01:37:09.502Z,69.96
2022-11-22T01:38:09.506Z,68.91
2022-11-22T01:39:09.790Z,68.85
2022-11-22T01:40:09.541Z,68.38
2022-11-22T01:41:09.556Z,67.65
2022-11-22T01:42:09.572Z,67.36
2022-11-22T01:43:09.600Z,67.11
2022-11-22T01:44:09.876Z,65.87
2022-11-22T01:45:09.882Z,64.37
2022-11-22T01:46:09.903Z,63.89
2022-11-22T01:47:09.935Z,63.7
2022-11-22T01:48:09.934Z,63.54
2022-11-22T01:49:09.971Z,63.8
2022-11-22T01:50:09.705Z,63.6
2022-11-22T01:51:09.982Z,64.18
2022-11-22T01:52:10.000Z,63.8
2022-11-22T01:53:10.020Z,63.86
2022-11-22T01:54:10.039Z,64.25
2022-11-22T01:55:10.045Z,64.72
2022-11-22T01:56:10.064Z,64.81
2022-11-22T01:57:10.078Z,65.26
2022-11-22T01:58:10.097Z,65.55
2022-11-22T01:59:09.852Z,65.74
2022-11-22T02:00:10.134Z,66.02
2022-11-22T02:01:10.145Z,65.55
2022-11-22T02:02:10.162Z,66.31
2022-11-22T02:03:10.209Z,66.28
2022-11-22T02:04:09.939Z,66.56
2022-11-22T02:05:10.237Z,66.47
2022-11-22T02:06:10.232Z,66.28
2022-11-22T02:07:10.129Z,66.56
2022-11-22T02:08:10.268Z,66.94
2022-11-22T02:09:10.014Z,66.75
2022-11-22T02:10:10.296Z,66.66
2022-11-22T02:11:10.320Z,66.72
2022-11-22T02:12:10.331Z,66.82
2022-11-22T02:13:10.087Z,67.1
2022-11-22T02:14:10.110Z,66.91
2022-11-22T02:15:10.120Z,67
2022-11-22T02:16:10.397Z,66.63
2022-11-22T02:17:10.411Z,67.58
2022-11-22T02:18:10.433Z,67.48
2022-11-22T02:19:10.217Z,67.68
2022-11-22T02:20:10.462Z,67.74
2022-11-22T02:21:10.500Z,67.45
2022-11-22T02:22:10.495Z,67.74
2022-11-22T02:23:10.523Z,67.64
2022-11-22T02:24:10.524Z,68.3
2022-11-22T02:25:10.544Z,68.21
2022-11-22T02:26:10.303Z,67.93
2022-11-22T02:27:10.579Z,68.21
2022-11-22T02:28:10.588Z,68.3
2022-11-22T02:29:10.613Z,68.3
2022-11-22T02:30:10.639Z,68.69
2022-11-22T02:31:10.642Z,68.5
2022-11-22T02:32:10.663Z,68.5
2022-11-22T02:33:10.683Z,68.5
2022-11-22T02:34:10.696Z,68.4
2022-11-22T02:35:10.469Z,68.78
2022-11-22T02:36:10.462Z,68.88
2022-11-22T02:37:10.770Z,68.65
2022-11-22T02:38:10.761Z,68.94
2022-11-22T02:39:10.769Z,68.27
2022-11-22T02:40:10.813Z,68.56
2022-11-22T02:41:10.806Z,68.94
2022-11-22T02:42:10.816Z,68.75
2022-11-22T02:43:10.832Z,69.04
2022-11-22T02:44:10.849Z,68.94
2022-11-22T02:45:10.869Z,69.04
2022-11-22T02:46:10.622Z,69.04
2022-11-22T02:47:10.903Z,68.94
2022-11-22T02:48:10.912Z,69.23
2022-11-22T02:49:10.676Z,69.42
2022-11-22T02:50:10.688Z,69.32
2022-11-22T02:51:10.993Z,69.6
2022-11-22T02:52:10.983Z,69.51
2022-11-22T02:53:11.028Z,69.51
2022-11-22T02:54:11.018Z,69.42
2022-11-22T02:55:11.029Z,69.89
2022-11-22T02:56:11.045Z,69.7
2022-11-22T02:57:10.808Z,69.79
2022-11-22T02:58:11.098Z,69.7
2022-11-22T02:59:11.099Z,69.7
2022-11-22T03:00:10.856Z,69.79
2022-11-22T03:01:11.524Z,69.89
2022-11-22T03:02:11.148Z,69.57
2022-11-22T03:03:11.165Z,70.05
2022-11-22T03:04:11.207Z,70.05
2022-11-22T03:05:11.188Z,70.43
2022-11-22T03:06:11.211Z,70.18
2022-11-22T03:07:11.401Z,70.24
2022-11-22T03:08:11.238Z,70.14
2022-11-22T03:09:11.284Z,70.14
2022-11-22T03:10:11.274Z,70.05
2022-11-22T03:11:11.284Z,69.76
2022-11-22T03:12:11.043Z,69.95
2022-11-22T03:13:11.322Z,70.14
2022-11-22T03:14:11.333Z,70.24
2022-11-22T03:15:11.358Z,70.14
2022-11-22T03:16:11.105Z,70.14
2022-11-22T03:17:11.384Z,70.24
2022-11-22T03:18:11.399Z,70.62
2022-11-22T03:19:11.415Z,69.76
2022-11-22T03:20:11.429Z,70.72
2022-11-22T03:21:11.194Z,70.14
2022-11-22T03:22:13.990Z,70.52
2022-11-22T03:23:11.472Z,70.52
2022-11-22T03:24:11.504Z,70.14
2022-11-22T03:25:11.530Z,70.14
2022-11-22T03:26:11.570Z,70.52
2022-11-22T03:27:11.544Z,70.62
2022-11-22T03:28:11.756Z,70.72
2022-11-22T03:29:11.571Z,70.52
2022-11-22T03:30:11.333Z,70.62
2022-11-22T03:31:11.607Z,70.43
2022-11-22T03:32:11.621Z,70.52
2022-11-22T03:33:11.648Z,70.33
2022-11-22T03:34:11.657Z,70.33
2022-11-22T03:35:11.659Z,70.43
2022-11-22T03:36:11.431Z,70.62
2022-11-22T03:37:11.699Z,70.72
2022-11-22T03:38:11.745Z,70.9
2022-11-22T03:39:11.731Z,70.33
2022-11-22T03:40:11.486Z,70.14
2022-11-22T03:41:11.850Z,70.33
2022-11-22T03:42:13.613Z,70.43
2022-11-22T03:43:11.533Z,70.52
2022-11-22T03:44:11.812Z,70.62
2022-11-22T03:45:11.826Z,70.43
2022-11-22T03:46:11.847Z,70.43
2022-11-22T03:47:11.858Z,70.9
2022-11-22T03:48:11.883Z,70.9
2022-11-22T03:49:11.887Z,70.9
2022-11-22T03:50:11.910Z,70.72
2022-11-22T03:51:11.920Z,70.81
2022-11-22T03:52:11.940Z,71.28
2022-11-22T03:53:11.954Z,71.19
2022-11-22T03:54:11.733Z,71.38
2022-11-22T03:55:11.727Z,71
2022-11-22T03:56:12.002Z,70.9
2022-11-22T03:57:12.052Z,71.09
2022-11-22T03:58:11.775Z,71.19
2022-11-22T03:59:12.039Z,71
2022-11-22T04:00:12.067Z,70.72
2022-11-22T04:01:18.326Z,70.81
2022-11-22T04:02:12.239Z,71
2022-11-22T04:03:12.106Z,70.9
2022-11-22T04:04:12.129Z,71
2022-11-22T04:05:12.154Z,71.38
2022-11-22T04:06:12.160Z,71.19
2022-11-22T04:07:12.311Z,71.19
2022-11-22T04:08:12.194Z,71.34
2022-11-22T04:09:12.136Z,71.53
2022-11-22T04:10:13.025Z,71.25
2022-11-22T04:11:12.237Z,71.34
2022-11-22T04:12:12.251Z,71.44
2022-11-22T04:13:12.297Z,71.34
2022-11-22T04:14:12.285Z,71.25
2022-11-22T04:15:12.293Z,71.53
2022-11-22T04:16:12.060Z,71.72
2022-11-22T04:17:12.333Z,71.67
2022-11-22T04:18:12.341Z,71.53
2022-11-22T04:19:12.365Z,71.57
2022-11-22T04:20:12.378Z,71.72
2022-11-22T04:21:12.142Z,71.72
2022-11-22T04:22:12.150Z,71.57
2022-11-22T04:23:12.430Z,71.53
2022-11-22T04:24:12.455Z,71.72
2022-11-22T04:25:12.455Z,71.63
2022-11-22T04:26:12.494Z,71.63
2022-11-22T04:27:12.495Z,71.72
2022-11-22T04:28:12.460Z,71.72
2022-11-22T04:29:13.194Z,71.53
2022-11-22T04:30:16.000Z,71.63
2022-11-22T04:31:12.555Z,71.34
2022-11-22T04:32:12.561Z,71.53
2022-11-22T04:33:12.591Z,71.44
2022-11-22T04:34:12.597Z,71.53
2022-11-22T04:35:12.627Z,71.53
2022-11-22T04:36:15.847Z,71.63
2022-11-22T04:37:12.383Z,71.91
2022-11-22T04:38:12.401Z,71.91
2022-11-22T04:39:12.674Z,72.01
2022-11-22T04:40:12.707Z,71.82
2022-11-22T04:41:12.709Z,71.82
2022-11-22T04:42:12.758Z,71.82
2022-11-22T04:43:12.480Z,71.72
2022-11-22T04:44:12.914Z,71.82
2022-11-22T04:45:12.901Z,71.72
2022-11-22T04:46:12.986Z,72.11
2022-11-22T04:47:12.939Z,71.82
2022-11-22T04:48:12.939Z,72.2
2022-11-22T04:49:12.936Z,72.2
2022-11-22T04:50:12.850Z,72.3
2022-11-22T04:51:12.920Z,72.2
2022-11-22T04:52:12.615Z,72.01
2022-11-22T04:53:12.639Z,72.3
2022-11-22T04:54:12.905Z,72.39
2022-11-22T04:55:12.921Z,72.3
2022-11-22T04:56:12.941Z,72.01
2022-11-22T04:57:12.956Z,72.11
2022-11-22T04:58:12.747Z,72.2
2022-11-22T04:59:12.987Z,72.01
2022-11-22T05:00:13.008Z,72.11
2022-11-22T05:01:13.317Z,72.11
2022-11-22T05:02:12.932Z,72.11
2022-11-22T05:03:13.047Z,71.82
2022-11-22T05:04:13.059Z,72.11
2022-11-22T05:05:13.083Z,72.01
2022-11-22T05:06:13.111Z,72.2
2022-11-22T05:07:12.974Z,72.3
2022-11-22T05:08:13.133Z,72.39
2022-11-22T05:09:13.139Z,72.2
2022-11-22T05:10:13.160Z,72.2
2022-11-22T05:11:13.179Z,72.49
2022-11-22T05:12:13.193Z,72.49
2022-11-22T05:13:13.201Z,72.49
2022-11-22T05:14:13.243Z,72.11
2022-11-22T05:15:13.234Z,72.2
2022-11-22T05:16:13.009Z,72.2
2022-11-22T05:17:15.958Z,72.11
2022-11-22T05:18:13.280Z,72.11
2022-11-22T05:19:13.714Z,72.96
2022-11-22T05:20:13.066Z,72.3
2022-11-22T05:21:13.338Z,72.49
2022-11-22T05:22:13.350Z,72.86
2022-11-22T05:23:13.359Z,72.77
2022-11-22T05:24:13.375Z,72.49
2022-11-22T05:25:13.392Z,72.58
2022-11-22T05:26:13.414Z,72.58
2022-11-22T05:27:13.166Z,72.67
2022-11-22T05:28:13.489Z,72.58
2022-11-22T05:29:13.452Z,72.58
2022-11-22T05:30:13.555Z,72.77
2022-11-22T05:31:13.255Z,72.58
2022-11-22T05:32:13.240Z,72.39
2022-11-22T05:33:13.543Z,72.58
2022-11-22T05:34:13.531Z,72.39
2022-11-22T05:35:13.547Z,72.49
2022-11-22T05:36:13.311Z,72.49
2022-11-22T05:37:13.583Z,72.58
2022-11-22T05:38:13.342Z,72.58
2022-11-22T05:39:13.608Z,72.49
2022-11-22T05:40:13.624Z,72.58
2022-11-22T05:41:13.637Z,72.49
2022-11-22T05:42:13.656Z,72.39
2022-11-22T05:43:13.674Z,72.49
2022-11-22T05:44:13.682Z,72.67
2022-11-22T05:45:13.445Z,72.49
2022-11-22T05:46:13.482Z,72.67
2022-11-22T05:47:13.474Z,72.39
2022-11-22T05:48:13.500Z,72.67
2022-11-22T05:49:13.791Z,72.58
2022-11-22T05:50:13.793Z,72.67
2022-11-22T05:51:13.796Z,72.58
2022-11-22T05:52:13.804Z,72.58
2022-11-22T05:53:13.580Z,72.77
2022-11-22T05:54:13.584Z,72.58
2022-11-22T05:55:13.887Z,72.58
2022-11-22T05:56:13.878Z,72.67
2022-11-22T05:57:13.891Z,72.96
2022-11-22T05:58:13.645Z,72.86
2022-11-22T05:59:13.674Z,72.86
2022-11-22T06:00:13.941Z,72.58
2022-11-22T06:01:13.697Z,72.96
2022-11-22T06:02:14.209Z,72.96
2022-11-22T06:03:13.987Z,72.96
2022-11-22T06:04:14.000Z,72.86
2022-11-22T06:05:14.048Z,72.86
2022-11-22T06:06:14.036Z,73.25
2022-11-22T06:07:14.217Z,73.25
2022-11-22T06:08:14.068Z,73.25
2022-11-22T06:09:14.096Z,72.86
2022-11-22T06:10:14.108Z,72.86
2022-11-22T06:11:14.111Z,73.06
2022-11-22T06:12:14.128Z,73.06
2022-11-22T06:13:14.148Z,73.15
2022-11-22T06:14:14.168Z,72.77
2022-11-22T06:15:14.176Z,72.74
2022-11-22T06:16:14.201Z,73.15
2022-11-22T06:17:14.231Z,73.15
2022-11-22T06:18:14.255Z,72.77
2022-11-22T06:19:14.246Z,72.67
2022-11-22T06:20:14.346Z,72.77
2022-11-22T06:21:14.300Z,72.67
2022-11-22T06:22:14.021Z,72.67
2022-11-22T06:23:14.305Z,72.77
2022-11-22T06:24:14.060Z,72.67
2022-11-22T06:25:14.339Z,73.06
2022-11-22T06:26:14.351Z,73.44
2022-11-22T06:27:14.368Z,73.06
2022-11-22T06:28:14.377Z,73.3
2022-11-22T06:29:14.135Z,73.25
2022-11-22T06:30:14.410Z,73.3
2022-11-22T06:31:14.432Z,73.21
2022-11-22T06:32:14.180Z,73.21
2022-11-22T06:33:14.194Z,73.21
2022-11-22T06:34:14.502Z,73.21
2022-11-22T06:35:14.500Z,73.3
2022-11-22T06:36:14.508Z,73.4
2022-11-22T06:37:14.539Z,73.4
2022-11-22T06:38:14.536Z,73.11
2022-11-22T06:39:14.565Z,73.49
2022-11-22T06:40:14.564Z,73.21
2022-11-22T06:41:14.583Z,73.3
2022-11-22T06:42:14.337Z,73.49
2022-11-22T06:43:14.355Z,73.21
2022-11-22T06:44:14.635Z,73.21
2022-11-22T06:45:14.385Z,73.21
2022-11-22T06:46:14.666Z,73.3
2022-11-22T06:47:14.412Z,73.21
2022-11-22T06:48:14.697Z,73.3
2022-11-22T06:49:14.709Z,73.3
2022-11-22T06:50:21.657Z,73.3
2022-11-22T06:51:14.477Z,73.3
2022-11-22T06:52:14.755Z,73.21
2022-11-22T06:53:50.468Z,72.83
2022-11-22T06:54:14.787Z,72.92
2022-11-22T06:55:52.627Z,72.92
2022-11-22T06:56:14.822Z,73.02
2022-11-22T06:57:14.831Z,73.02
2022-11-22T06:58:14.853Z,73.02
2022-11-22T06:59:14.858Z,73.02
2022-11-22T07:00:14.626Z,73.02
2022-11-22T07:01:15.132Z,73.21
2022-11-22T07:02:14.926Z,73.3
2022-11-22T07:03:14.930Z,73.21
2022-11-22T07:04:14.942Z,73.3
2022-11-22T07:05:30.278Z,73.21
2022-11-22T07:06:14.988Z,73.11
2022-11-22T07:07:15.076Z,73.21
2022-11-22T07:08:16.673Z,73.21
2022-11-22T07:09:15.052Z,73.11
2022-11-22T07:10:15.039Z,73.02
2022-11-22T07:11:14.794Z,73.21
2022-11-22T07:12:15.061Z,73.3
2022-11-22T07:13:14.820Z,73.21
2022-11-22T07:14:14.841Z,73.11
2022-11-22T07:15:15.114Z,73.11
2022-11-22T07:16:15.133Z,73.21
2022-11-22T07:17:15.140Z,73.21
2022-11-22T07:18:15.366Z,73.4
2022-11-22T07:19:14.970Z,73.3
2022-11-22T07:20:14.924Z,73.21
2022-11-22T07:21:16.285Z,73.21
2022-11-22T07:22:15.064Z,73.21
2022-11-22T07:23:15.342Z,73.21
2022-11-22T07:24:14.994Z,73.4
2022-11-22T07:25:15.293Z,73.21
2022-11-22T07:26:15.024Z,73.21
2022-11-22T07:27:15.398Z,73.4
2022-11-22T07:28:15.315Z,73.11
2022-11-22T07:29:15.327Z,73.3
2022-11-22T07:30:15.343Z,73.21
2022-11-22T07:31:15.107Z,73.11
2022-11-22T07:32:15.375Z,73.4
2022-11-22T07:33:15.388Z,73.3
2022-11-22T07:34:15.408Z,73.21
2022-11-22T07:35:15.172Z,73.21
2022-11-22T07:36:15.456Z,73.11
2022-11-22T07:37:15.226Z,73.3
2022-11-22T07:38:15.470Z,73.21
2022-11-22T07:39:15.231Z,73.11
2022-11-22T07:40:15.491Z,73.21
2022-11-22T07:41:15.540Z,73.21
2022-11-22T07:42:15.610Z,73.21
2022-11-22T07:43:15.545Z,73.21
2022-11-22T07:44:15.344Z,73.21
2022-11-22T07:45:15.589Z,73.21
2022-11-22T07:46:15.341Z,73.4
2022-11-22T07:47:22.854Z,73.21
2022-11-22T07:48:15.626Z,73.21
2022-11-22T07:49:15.635Z,73.11
2022-11-22T07:50:15.392Z,73.11
2022-11-22T07:51:15.664Z,73.02
2022-11-22T07:52:15.685Z,73.21
2022-11-22T07:53:15.743Z,73.02
2022-11-22T07:54:15.707Z,73.21
2022-11-22T07:55:16.652Z,73.3
2022-11-22T07:56:15.744Z,73.21
2022-11-22T07:57:15.886Z,73.21
2022-11-22T07:58:15.775Z,73.3
2022-11-22T07:59:15.783Z,73.02
2022-11-22T08:00:15.817Z,73.21
2022-11-22T08:01:15.680Z,73.11
2022-11-22T08:02:15.673Z,73.21
2022-11-22T08:03:24.072Z,73.02
2022-11-22T08:04:15.861Z,73.11
2022-11-22T08:05:15.633Z,73.21
2022-11-22T08:06:15.931Z,73.02
2022-11-22T08:07:16.095Z,72.92
2022-11-22T08:08:15.681Z,73.02
2022-11-22T08:09:16.067Z,72.92
2022-11-22T08:10:15.972Z,73.3
2022-11-22T08:11:15.992Z,72.83
2022-11-22T08:12:15.986Z,73.11
2022-11-22T08:13:16.132Z,73.4
2022-11-22T08:14:15.808Z,73.3
2022-11-22T08:15:16.047Z,73.11
2022-11-22T08:16:16.049Z,73.21
2022-11-22T08:17:16.072Z,73.02
2022-11-22T08:18:16.186Z,73.49
2022-11-22T08:19:15.839Z,73.3
2022-11-22T08:20:15.865Z,73.21
2022-11-22T08:21:16.134Z,73.21
2022-11-22T08:22:16.136Z,73.02
2022-11-22T08:23:16.154Z,73.02
2022-11-22T08:24:15.910Z,73.21
2022-11-22T08:25:16.315Z,73.02
2022-11-22T08:26:16.208Z,73.21
2022-11-22T08:27:15.962Z,73.21
2022-11-22T08:28:16.242Z,73.02
2022-11-22T08:29:17.127Z,73.11
2022-11-22T08:30:16.279Z,73.21
2022-11-22T08:31:16.279Z,73.21
2022-11-22T08:32:16.039Z,73.21
2022-11-22T08:33:16.050Z,73.11
2022-11-22T08:34:16.329Z,73.02
2022-11-22T08:35:16.413Z,73.02
2022-11-22T08:36:16.359Z,72.86
2022-11-22T08:37:16.478Z,72.77
2022-11-22T08:38:16.395Z,72.77
2022-11-22T08:39:16.139Z,73.25
2022-11-22T08:40:16.439Z,73.11
2022-11-22T08:41:16.209Z,73.06
2022-11-22T08:42:16.470Z,72.74
2022-11-22T08:43:16.212Z,73.06
2022-11-22T08:44:16.220Z,72.96
2022-11-22T08:45:16.632Z,72.67
2022-11-22T08:46:16.521Z,72.77
2022-11-22T08:47:16.549Z,72.77
2022-11-22T08:48:23.031Z,72.58
2022-11-22T08:49:16.310Z,72.49
2022-11-22T08:50:16.325Z,72.39
2022-11-22T08:51:16.589Z,72.3
2022-11-22T08:52:16.617Z,72.49
2022-11-22T08:53:16.468Z,72.58
2022-11-22T08:54:16.639Z,72.58
2022-11-22T08:55:16.668Z,72.58
2022-11-22T08:56:16.678Z,72.86
2022-11-22T08:57:16.813Z,72.86
2022-11-22T08:58:16.443Z,72.86
2022-11-22T08:59:16.908Z,72.67
2022-11-22T09:00:16.736Z,72.58
2022-11-22T09:01:17.151Z,72.86
2022-11-22T09:02:16.772Z,72.58
2022-11-22T09:03:16.783Z,72.3
2022-11-22T09:04:16.541Z,72.58
2022-11-22T09:05:16.935Z,72.58
2022-11-22T09:08:27.136Z,72.39
2022-11-22T09:09:40.096Z,72.2
2022-11-22T09:10:26.045Z,72.11
2022-11-22T09:11:25.805Z,72.39
2022-11-22T09:12:26.193Z,72.3
2022-11-22T09:13:26.099Z,72.11
2022-11-22T09:14:26.124Z,72.2
2022-11-22T09:15:26.123Z,72.01
2022-11-22T09:16:26.253Z,72.2
2022-11-22T09:17:25.900Z,72.2
2022-11-22T09:18:25.960Z,72.2
2022-11-22T09:19:26.186Z,72.11
2022-11-22T09:20:26.201Z,72.49
2022-11-22T09:21:26.215Z,72.2
2022-11-22T09:22:30.581Z,72.2
2022-11-22T09:23:26.259Z,72.49
2022-11-22T09:24:26.270Z,72.2
2022-11-22T09:25:26.023Z,72.3
2022-11-22T09:26:26.039Z,72.86
2022-11-22T09:27:26.051Z,72.49
2022-11-22T09:28:26.819Z,72.2
2022-11-22T09:29:26.371Z,72.86
2022-11-22T09:30:26.368Z,72.49
2022-11-22T09:31:26.372Z,72.77
2022-11-22T09:32:32.300Z,72.58
2022-11-22T09:33:26.157Z,72.49
2022-11-22T09:34:26.417Z,72.58
2022-11-22T09:35:26.174Z,72.58
2022-11-22T09:36:26.457Z,72.3
2022-11-22T09:37:26.467Z,72.86
2022-11-22T09:38:26.230Z,72.58
2022-11-22T09:39:26.497Z,72.49
2022-11-22T09:40:26.526Z,72.58
2022-11-22T09:41:26.533Z,72.58
2022-11-22T09:42:26.285Z,72.58
2022-11-22T09:43:26.566Z,72.77
2022-11-22T09:44:26.599Z,72.39
2022-11-22T09:45:26.596Z,72.39
2022-11-22T09:46:26.616Z,72.67
2022-11-22T09:47:26.617Z,72.58
2022-11-22T09:48:26.760Z,72.39
2022-11-22T09:49:26.660Z,72.49
2022-11-22T09:50:26.671Z,72.39
2022-11-22T09:51:26.428Z,72.39
2022-11-22T09:52:26.449Z,72.67
2022-11-22T09:53:26.557Z,72.67
2022-11-22T09:54:26.483Z,72.49
2022-11-22T09:55:27.067Z,72.67
2022-11-22T09:56:26.768Z,72.67
2022-11-22T09:57:26.787Z,72.58
2022-11-22T09:58:26.800Z,72.67
2022-11-22T09:59:26.828Z,72.77
2022-11-22T10:00:26.695Z,72.67
2022-11-22T10:01:26.983Z,72.58
2022-11-22T10:02:26.857Z,72.77
2022-11-22T10:03:26.881Z,72.58
2022-11-22T10:04:27.022Z,72.58
2022-11-22T10:05:26.656Z,72.58
2022-11-22T10:06:26.936Z,72.58
2022-11-22T10:07:27.022Z,72.67
2022-11-22T10:08:26.955Z,72.67
2022-11-22T10:09:26.970Z,72.67
2022-11-22T10:10:26.984Z,72.67
2022-11-22T10:11:28.931Z,72.58
2022-11-22T10:12:27.012Z,72.58
2022-11-22T10:13:27.033Z,72.58
2022-11-22T10:14:27.051Z,72.77
2022-11-22T10:15:27.062Z,72.58
2022-11-22T10:16:27.208Z,72.96
2022-11-22T10:17:27.102Z,72.67
2022-11-22T10:18:27.169Z,72.96
2022-11-22T10:19:27.191Z,72.67
2022-11-22T10:20:27.285Z,72.86
2022-11-22T10:21:27.172Z,72.77
2022-11-22T10:22:27.173Z,72.96
2022-11-22T10:23:27.186Z,73.25
2022-11-22T10:24:27.200Z,72.86
2022-11-22T10:25:27.220Z,72.86
2022-11-22T10:26:26.976Z,72.96
2022-11-22T10:27:27.257Z,72.86
2022-11-22T10:28:27.001Z,72.96
2022-11-22T10:29:27.355Z,72.96
2022-11-22T10:30:27.296Z,72.86
2022-11-22T10:31:27.328Z,73.06
2022-11-22T10:32:27.437Z,72.86
2022-11-22T10:33:27.344Z,72.96
2022-11-22T10:34:27.355Z,72.77
2022-11-22T10:35:27.375Z,72.86
2022-11-22T10:36:27.507Z,73.06
2022-11-22T10:37:27.406Z,73.06
2022-11-22T10:38:27.182Z,73.15
2022-11-22T10:39:34.359Z,73.15
2022-11-22T10:40:27.459Z,73.15
2022-11-22T10:41:27.491Z,73.06
2022-11-22T10:42:27.220Z,73.15
2022-11-22T10:43:27.517Z,72.67
2022-11-22T10:44:27.511Z,72.77
2022-11-22T10:45:27.281Z,72.77
2022-11-22T10:46:27.543Z,73.06
2022-11-22T10:47:34.172Z,73.06
2022-11-22T10:48:27.444Z,72.77
2022-11-22T10:49:27.531Z,73.06
2022-11-22T10:50:27.347Z,73.15
2022-11-22T10:51:27.632Z,73.15
2022-11-22T10:52:27.760Z,73.06
2022-11-22T10:53:27.403Z,73.15
2022-11-22T10:54:27.668Z,73.06
2022-11-22T10:55:27.425Z,73.06
2022-11-22T10:56:27.701Z,73.06
2022-11-22T10:57:27.713Z,73.06
2022-11-22T10:58:27.475Z,73.06
2022-11-22T10:59:31.707Z,72.96
2022-11-22T11:00:27.764Z,73.06
2022-11-22T11:01:27.892Z,73.15
2022-11-22T11:02:27.803Z,73.15
2022-11-22T11:03:27.810Z,72.96
2022-11-22T11:04:27.951Z,72.86
2022-11-22T11:05:27.847Z,73.06
2022-11-22T11:07:28.030Z,72.96
2022-11-22T11:09:48.298Z,73.25
2022-11-22T11:10:39.670Z,72.86
2022-11-22T11:11:39.339Z,72.67
2022-11-22T11:12:39.093Z,72.39
2022-11-22T11:13:39.372Z,72.67
2022-11-22T11:14:39.383Z,72.67
2022-11-22T11:15:39.412Z,72.58
2022-11-22T11:16:39.431Z,72.58
2022-11-22T11:17:39.433Z,72.86
2022-11-22T11:18:39.294Z,72.96
2022-11-22T11:19:39.338Z,72.58
2022-11-22T11:20:39.483Z,72.86
2022-11-22T11:21:39.498Z,73
2022-11-22T11:23:15.978Z,72.67
2022-11-22T11:23:39.650Z,72.9
2022-11-22T11:24:39.552Z,72.96
2022-11-22T11:25:39.556Z,72.58
2022-11-22T11:26:39.319Z,72.86
2022-11-22T11:27:39.590Z,72.96
2022-11-22T11:28:39.603Z,73.25
2022-11-22T11:29:40.447Z,73.15
2022-11-22T11:30:39.409Z,73.28
2022-11-22T11:31:39.652Z,72.67
2022-11-22T11:32:39.408Z,72.86
2022-11-22T11:33:39.438Z,72.58
2022-11-22T11:34:39.720Z,73.15
2022-11-22T11:35:39.574Z,73.19
2022-11-22T11:36:39.471Z,73.25
2022-11-22T11:37:39.752Z,73.15
2022-11-22T11:38:39.491Z,73.15
2022-11-22T11:39:45.885Z,72.67
2022-11-22T11:40:39.792Z,73.15
2022-11-22T11:41:45.415Z,73.06
2022-11-22T11:42:39.826Z,73.15
2022-11-22T11:43:39.839Z,73.06
2022-11-22T11:44:39.862Z,73.15
2022-11-22T11:45:39.876Z,73.15
2022-11-22T11:46:39.627Z,72.67
2022-11-22T11:47:39.902Z,73.15
2022-11-22T11:48:39.662Z,73.1
2022-11-22T11:49:39.944Z,73.1
2022-11-22T11:50:39.691Z,73
2022-11-22T11:51:40.087Z,73.15
2022-11-22T11:52:39.991Z,73.25
2022-11-22T11:53:39.732Z,73.1
2022-11-22T11:54:40.020Z,73.28
2022-11-22T11:55:40.166Z,72.9
2022-11-22T11:56:40.053Z,73
2022-11-22T11:57:40.056Z,72.71
2022-11-22T11:58:39.822Z,72.62
2022-11-22T11:59:39.852Z,72.62
2022-11-22T12:00:39.857Z,72.62
2022-11-22T12:01:41.591Z,72.71
2022-11-22T12:02:40.050Z,72.62
2022-11-22T12:03:39.900Z,72.71
2022-11-22T12:04:40.173Z,72.9
2022-11-22T12:05:40.188Z,73
2022-11-22T12:06:39.953Z,72.9
2022-11-22T12:07:40.537Z,73
2022-11-22T12:08:39.976Z,73
2022-11-22T12:09:40.248Z,72.9
2022-11-22T12:10:40.277Z,72.86
2022-11-22T12:11:40.425Z,72.62
2022-11-22T12:12:40.307Z,73
2022-11-22T12:14:22.211Z,72.9
2022-11-22T12:15:15.231Z,72.9
2022-11-22T12:16:14.025Z,73.28
2022-11-22T12:17:14.042Z,72.81
2022-11-22T12:18:14.051Z,72.81
2022-11-22T12:19:14.279Z,72.81
2022-11-22T12:20:13.822Z,72.9
2022-11-22T12:21:14.113Z,72.71
2022-11-22T12:22:42.535Z,72.81
2022-11-22T12:23:14.267Z,72.86
2022-11-22T12:48:26.116Z,73.1
2022-11-22T12:48:37.368Z,72.9
2022-11-22T12:49:37.255Z,73.1
2022-11-22T12:50:37.017Z,73.1
2022-11-22T12:51:37.288Z,72.9
2022-11-22T12:52:37.318Z,72.62
2022-11-22T12:53:37.333Z,72.81
2022-11-22T12:54:37.344Z,72.9
2022-11-22T12:55:37.354Z,72.62
2022-11-22T12:56:37.377Z,72.62
2022-11-22T12:57:37.141Z,72.33
2022-11-22T12:58:37.403Z,72.52
2022-11-22T12:59:37.423Z,72.81
2022-11-22T13:00:37.446Z,72.62
2022-11-22T13:01:37.631Z,72.62
2022-11-22T13:02:37.471Z,72.71
2022-11-22T13:03:37.591Z,72.9
2022-11-22T13:04:37.624Z,72.62
2022-11-22T13:05:37.523Z,72.62
2022-11-22T13:06:37.272Z,72.33
2022-11-22T13:07:37.440Z,73
2022-11-22T13:08:37.568Z,72.9
2022-11-22T13:09:37.320Z,72.62
2022-11-22T13:10:37.333Z,72.9
2022-11-22T13:11:37.618Z,72.62
2022-11-22T13:12:37.629Z,72.52
2022-11-22T13:13:37.643Z,72.52
2022-11-22T13:14:37.672Z,72.81
2022-11-22T13:15:37.674Z,72.81
2022-11-22T13:16:37.689Z,72.71
2022-11-22T13:17:37.714Z,72.62
2022-11-22T13:18:37.464Z,72.62
2022-11-22T13:19:37.858Z,72.62
2022-11-22T13:20:44.979Z,72.71
2022-11-22T13:21:37.781Z,72.42
2022-11-22T13:22:37.790Z,72.62
2022-11-22T13:23:37.741Z,72.71
2022-11-22T13:24:37.816Z,72.52
2022-11-22T13:25:37.580Z,73